Olivia, Texas
Current Conditions -  °F | °C
As of 3:51 PM on Monday 24 Nov 2014 (Local Time) from KVCT Reporting Station
Overcast Overcast  
Wind Chill: 18°   Ceiling: 11000
Heat Index: 18°   Visibility: 10mi
Dew Point:   Wind: 9mph
Humidity: 33%   Direction: 360°N
Pressure: 30.03"   Gusts: NA
Location:  28.5342°N, 96.663°W
Report Text: KVCT 242151Z 36008KT 10SM OVC110 18/02 A3003 RMK AO2 SLP166 T01830017
Loading
Personal Weather Stations






























Interactive Weather Map New forecast layout! Learn more

10-Day Weather Forecast

Advertisements
Track Severe Weather on mobile